Time;durP1;ratioP1;P1;durP2;ratioP2;P2;SDS_P1;SDS_P2;PMS_P1;PMS_P2;Temp;Humidity;BMP_temperature;BMP_pressure;BME280_temperature;BME280_humidity;BME280_pressure;Samples;Min_cycle;Max_cycle;Signal;HPM_P1;HPM_P2
2022/06/04 00:00:41;;;;;;;13.43;4.93;;;;;;;22.31;61.86;101144.47;4997287;28;20559;-80
2022/06/04 00:03:07;;;;;;;8.30;4.47;;;;;;;22.45;61.80;101164.34;4995557;28;20030;-81
2022/06/04 00:05:36;;;;;;;7.43;4.55;;;;;;;22.41;61.65;101154.06;5011874;28;20108;-80
2022/06/04 00:08:02;;;;;;;12.52;4.50;;;;;;;22.40;61.66;101147.75;4990674;28;20033;-81
2022/06/04 00:15:58;;;;;;;12.10;4.68;;;;;;;22.35;62.35;101150.31;5013634;28;20048;-81
2022/06/04 00:18:23;;;;;;;7.75;4.60;;;;;;;22.24;62.72;101162.03;5036923;28;20026;-83
2022/06/04 00:20:49;;;;;;;6.72;4.65;;;;;;;22.25;62.90;101171.94;5018286;28;20026;-81
2022/06/04 00:23:15;;;;;;;8.93;4.30;;;;;;;22.21;62.97;101157.84;5013934;28;20029;-81
2022/06/04 00:25:43;;;;;;;13.82;4.80;;;;;;;22.13;62.58;101141.69;5013228;28;20132;-81
2022/06/04 00:28:09;;;;;;;8.32;4.65;;;;;;;22.13;62.99;101148.00;5019927;28;20036;-81
2022/06/04 00:30:35;;;;;;;10.38;4.78;;;;;;;22.20;62.73;101158.06;5031108;28;20054;-82
2022/06/04 00:33:00;;;;;;;11.32;6.07;;;;;;;22.10;63.18;101147.59;5027043;28;20099;-81
2022/06/04 00:35:26;;;;;;;7.82;5.35;;;;;;;22.11;62.91;101144.63;5010861;28;20434;-81
2022/06/04 00:37:51;;;;;;;7.45;4.68;;;;;;;22.09;63.18;101141.28;5026873;28;20036;-81
2022/06/04 00:40:24;;;;;;;9.73;4.85;;;;;;;22.13;62.94;101136.22;5030537;28;20428;-81
2022/06/04 00:42:49;;;;;;;7.57;5.00;;;;;;;22.09;63.09;101138.56;4995729;28;20032;-83
2022/06/04 00:45:21;;;;;;;8.38;4.70;;;;;;;22.10;63.18;101142.13;5008536;28;20030;-81
2022/06/04 00:47:47;;;;;;;9.85;4.97;;;;;;;22.12;62.50;101140.84;5027154;28;20502;-81
2022/06/04 00:50:15;;;;;;;8.60;5.10;;;;;;;22.10;62.60;101132.03;5005077;28;20025;-81
2022/06/04 00:52:41;;;;;;;7.90;4.72;;;;;;;22.08;62.98;101133.31;4989697;28;20037;-80
2022/06/04 00:55:07;;;;;;;9.30;4.75;;;;;;;22.02;63.17;101135.03;5013052;28;20489;-81
2022/06/04 00:57:43;;;;;;;6.55;4.90;;;;;;;22.04;63.36;101132.09;5024050;28;20139;-82
2022/06/04 01:00:33;;;;;;;9.50;4.82;;;;;;;22.02;63.25;101137.78;5030282;28;20021;-81
2022/06/04 01:03:06;;;;;;;6.25;4.80;;;;;;;21.85;63.75;101128.47;5004644;28;20022;-82
2022/06/04 01:05:51;;;;;;;9.00;5.13;;;;;;;21.90;63.24;101125.91;5010231;28;20196;-81
2022/06/04 01:08:27;;;;;;;11.63;4.90;;;;;;;21.85;63.92;101131.22;5006948;28;20517;-81
2022/06/04 01:12:09;;;;;;;7.70;4.80;;;;;;;21.69;64.13;101136.19;5001701;28;20044;-83
2022/06/04 01:14:52;;;;;;;9.83;5.03;;;;;;;21.63;64.25;101128.88;4947180;29;20130;-82
2022/06/04 01:17:23;;;;;;;8.07;5.03;;;;;;;21.67;64.22;101115.56;5011755;28;20034;-80
2022/06/04 01:20:30;;;;;;;9.20;5.05;;;;;;;21.81;63.58;101127.25;5005871;28;20033;-81
2022/06/04 01:23:14;;;;;;;8.77;4.50;;;;;;;21.68;63.78;101120.84;5002531;28;20453;-81
2022/06/04 01:25:46;;;;;;;8.25;5.20;;;;;;;21.76;63.43;101119.69;5009946;28;20402;-80
2022/06/04 01:28:16;;;;;;;6.90;5.13;;;;;;;21.57;63.65;101110.59;5024721;28;20498;-80
2022/06/04 01:30:44;;;;;;;10.20;4.85;;;;;;;21.74;63.65;101132.78;5007558;28;20116;-80
2022/06/04 01:33:12;;;;;;;6.82;4.72;;;;;;;21.65;64.04;101126.72;4996095;28;20120;-80
2022/06/04 01:35:37;;;;;;;8.07;4.90;;;;;;;21.73;63.72;101135.72;5029525;28;20397;-80
2022/06/04 01:38:46;;;;;;;7.93;5.13;;;;;;;21.81;63.48;101132.72;5028648;28;20018;-80
2022/06/04 01:41:15;;;;;;;9.57;5.07;;;;;;;21.88;63.28;101136.22;4950860;28;20048;-82
2022/06/04 01:43:46;;;;;;;8.38;5.38;;;;;;;21.89;63.06;101130.53;4996157;28;20037;-80
2022/06/04 01:46:29;;;;;;;7.93;5.65;;;;;;;21.93;63.18;101130.91;5012467;28;20031;-81
2022/06/04 01:49:02;;;;;;;8.98;5.53;;;;;;;21.94;63.05;101129.88;5012088;28;20099;-81
2022/06/04 01:51:28;;;;;;;8.18;5.55;;;;;;;21.86;63.20;101122.75;5007290;28;20042;-81
2022/06/04 01:54:03;;;;;;;11.02;5.85;;;;;;;21.78;63.61;101128.53;5007134;28;20409;-80
2022/06/04 01:56:31;;;;;;;10.02;6.35;;;;;;;21.68;63.67;101119.97;4994337;28;20474;-81
2022/06/04 01:59:13;;;;;;;11.25;6.20;;;;;;;21.74;63.48;101127.28;5008270;28;20038;-80
2022/06/04 02:01:39;;;;;;;10.40;5.97;;;;;;;21.78;63.40;101127.69;5026207;28;20034;-81
2022/06/04 02:04:09;;;;;;;9.18;5.90;;;;;;;21.74;63.71;101126.47;5004988;28;20040;-81
2022/06/04 02:06:45;;;;;;;9.55;5.78;;;;;;;21.82;63.48;101128.91;5006097;28;20128;-80
2022/06/04 02:09:15;;;;;;;9.68;6.20;;;;;;;21.75;63.50;101122.66;4991855;28;20167;-80
2022/06/04 02:11:44;;;;;;;11.48;6.68;;;;;;;21.71;63.82;101130.50;4994706;28;20026;-81
2022/06/04 02:14:11;;;;;;;8.57;6.57;;;;;;;21.78;63.56;101120.31;4996043;28;20498;-81
2022/06/04 02:16:50;;;;;;;12.32;6.88;;;;;;;21.81;63.25;101110.81;5010615;28;20151;-83
2022/06/04 02:19:15;;;;;;;13.18;7.00;;;;;;;21.83;63.42;101116.91;4992451;28;20036;-81
2022/06/04 02:21:41;;;;;;;9.25;7.50;;;;;;;21.79;63.34;101113.78;5042575;28;20033;-81
2022/06/04 02:24:08;;;;;;;11.63;8.30;;;;;;;21.71;63.88;101101.22;4990516;28;20055;-81
2022/06/04 02:26:33;;;;;;;11.07;8.82;;;;;;;21.73;63.41;101087.31;5014574;28;20521;-80
2022/06/04 02:28:59;;;;;;;11.57;8.32;;;;;;;21.76;63.34;101089.59;5026570;28;20025;-81
2022/06/04 02:31:39;;;;;;;11.68;8.50;;;;;;;21.78;63.68;101083.91;4997935;28;20137;-81
2022/06/04 02:34:25;;;;;;;14.35;9.77;;;;;;;21.75;63.76;101070.66;5029813;28;20041;-82
2022/06/04 02:37:05;;;;;;;14.45;9.45;;;;;;;21.66;63.78;101048.25;5029214;28;20049;-80
2022/06/04 02:39:46;;;;;;;12.50;8.85;;;;;;;21.66;64.10;101065.50;5000531;28;20037;-80
2022/06/04 02:42:19;;;;;;;11.30;8.68;;;;;;;21.50;64.52;101061.41;5029383;28;20570;-80
2022/06/04 02:44:54;;;;;;;15.40;8.60;;;;;;;21.59;64.37;101064.72;5024050;28;20075;-80
2022/06/04 02:47:25;;;;;;;14.27;8.45;;;;;;;21.55;64.88;101077.16;5000020;28;20068;-80
2022/06/04 02:50:02;;;;;;;12.82;8.52;;;;;;;21.62;64.43;101079.84;4998600;28;20034;-80
2022/06/04 02:52:27;;;;;;;13.02;8.30;;;;;;;21.54;64.75;101072.75;5000399;28;20458;-80
2022/06/04 02:55:00;;;;;;;11.80;9.07;;;;;;;21.53;64.77;101076.53;5015257;28;20026;-82
2022/06/04 02:57:26;;;;;;;14.38;9.30;;;;;;;21.43;64.64;101087.16;4998916;28;20042;-80
2022/06/04 02:59:53;;;;;;;13.52;9.65;;;;;;;21.48;64.62;101092.78;5014977;28;20064;-80
2022/06/04 03:02:19;;;;;;;13.57;9.40;;;;;;;21.58;64.41;101100.50;4999159;28;20029;-79
2022/06/04 03:04:48;;;;;;;13.40;9.07;;;;;;;21.56;64.29;101097.13;4982376;28;20037;-80
2022/06/04 03:07:14;;;;;;;12.35;9.52;;;;;;;21.59;64.52;101097.53;5032338;28;20037;-80
2022/06/04 03:09:40;;;;;;;14.43;8.98;;;;;;;21.64;64.24;101105.91;5011149;28;20025;-80
2022/06/04 03:12:06;;;;;;;15.35;9.27;;;;;;;21.59;63.77;101081.13;5013810;28;20030;-80
2022/06/04 03:14:31;;;;;;;14.38;8.95;;;;;;;21.80;63.66;101104.53;5005286;28;20569;-81
2022/06/04 03:16:57;;;;;;;13.40;8.73;;;;;;;21.64;64.25;101094.97;5011075;28;20159;-81
2022/06/04 03:19:23;;;;;;;10.50;8.23;;;;;;;21.56;64.31;101083.47;4997002;28;20120;-83
2022/06/04 03:21:48;;;;;;;16.65;8.98;;;;;;;21.79;63.81;101096.53;5027104;28;20115;-81
2022/06/04 03:24:15;;;;;;;14.90;8.82;;;;;;;21.80;63.75;101093.56;5022442;28;20041;-83
2022/06/04 03:26:41;;;;;;;9.80;7.88;;;;;;;21.88;63.35;101090.53;5006204;28;20029;-80
2022/06/04 03:29:06;;;;;;;10.77;7.32;;;;;;;21.89;63.51;101086.75;5030694;28;20121;-80
2022/06/04 03:31:32;;;;;;;10.57;6.43;;;;;;;21.92;63.10;101082.72;4999094;28;20087;-81
2022/06/04 03:33:58;;;;;;;8.95;6.35;;;;;;;21.99;62.42;101086.22;5025050;28;20052;-80
2022/06/04 03:36:27;;;;;;;8.23;6.32;;;;;;;21.92;62.75;101093.66;5013769;28;20064;-81
2022/06/04 03:38:56;;;;;;;8.85;6.25;;;;;;;21.94;62.54;101110.72;5013027;28;20115;-84
2022/06/04 03:41:23;;;;;;;10.27;5.80;;;;;;;21.90;62.94;101112.22;4992214;28;20103;-81
2022/06/04 03:43:52;;;;;;;7.65;5.88;;;;;;;22.01;62.33;101108.75;5014234;28;20041;-80
2022/06/04 03:46:21;;;;;;;11.60;5.80;;;;;;;22.17;61.88;101114.69;5011832;28;20025;-81
2022/06/04 03:48:46;;;;;;;8.00;5.60;;;;;;;22.18;61.81;101117.19;5010960;28;20037;-81
2022/06/04 03:51:12;;;;;;;9.13;5.65;;;;;;;22.09;61.97;101108.44;5009434;28;20544;-81
2022/06/04 03:53:37;;;;;;;7.13;5.30;;;;;;;22.23;61.34;101109.16;5013781;28;20030;-80
2022/06/04 03:56:03;;;;;;;9.75;5.60;;;;;;;22.18;61.49;101099.94;5020745;28;20037;-80
2022/06/04 03:58:30;;;;;;;7.93;5.45;;;;;;;22.31;61.37;101119.84;5010361;28;20029;-81
2022/06/04 04:00:56;;;;;;;7.65;5.60;;;;;;;22.42;61.05;101120.97;5011064;28;20360;-81
2022/06/04 04:03:21;;;;;;;13.00;5.72;;;;;;;22.60;60.59;101130.25;5012824;28;20093;-81
2022/06/04 04:05:48;;;;;;;7.93;5.07;;;;;;;22.63;59.91;101129.78;4994251;28;20115;-79
2022/06/04 04:08:14;;;;;;;8.00;5.07;;;;;;;22.83;59.98;101130.38;5009913;28;20026;-83
2022/06/04 04:10:40;;;;;;;9.35;5.43;;;;;;;23.16;58.85;101132.69;4994236;28;20033;-82
2022/06/04 04:13:07;;;;;;;8.70;5.25;;;;;;;23.21;58.40;101139.38;5010457;28;20116;-80
2022/06/04 04:15:32;;;;;;;11.48;5.30;;;;;;;23.49;57.21;101136.84;5011506;28;20030;-81
2022/06/04 04:17:58;;;;;;;9.85;4.90;;;;;;;23.72;56.47;101148.94;5011706;28;20556;-80
2022/06/04 04:20:25;;;;;;;10.38;5.22;;;;;;;23.79;56.12;101138.72;5011744;28;20544;-81
2022/06/04 04:22:51;;;;;;;6.38;5.10;;;;;;;23.93;55.53;101136.59;5010696;28;20104;-80
2022/06/04 04:25:18;;;;;;;8.00;4.80;;;;;;;24.21;54.74;101144.94;5025714;28;20046;-80
2022/06/04 04:27:43;;;;;;;9.45;4.80;;;;;;;24.30;54.61;101142.63;4994485;28;20037;-80
2022/06/04 04:30:10;;;;;;;8.20;5.05;;;;;;;24.42;54.03;101148.13;5014268;28;20029;-81
2022/06/04 04:32:36;;;;;;;10.60;4.88;;;;;;;24.40;54.00;101134.63;5011605;28;20033;-80
2022/06/04 04:35:02;;;;;;;6.95;4.60;;;;;;;24.66;53.37;101142.63;5017548;28;20048;-82
2022/06/04 04:37:28;;;;;;;9.23;4.75;;;;;;;24.91;52.61;101150.53;5013345;28;20053;-81
2022/06/04 04:39:54;;;;;;;7.43;4.35;;;;;;;25.12;51.75;101163.59;5028220;28;20512;-82
2022/06/04 04:42:20;;;;;;;9.70;4.70;;;;;;;25.25;52.11;101146.00;5028167;28;20405;-82
2022/06/04 04:44:45;;;;;;;9.10;4.45;;;;;;;25.49;51.14;101155.78;4994397;28;20033;-81
2022/06/04 04:47:11;;;;;;;9.32;4.30;;;;;;;25.59;51.17;101157.06;5021893;28;20050;-81
2022/06/04 04:49:36;;;;;;;8.55;4.38;;;;;;;25.81;49.68;101154.41;5022426;28;20040;-81
2022/06/04 04:52:02;;;;;;;5.13;4.20;;;;;;;25.78;49.93;101149.38;5021456;28;20033;-80
2022/06/04 04:54:28;;;;;;;7.00;4.47;;;;;;;26.00;49.46;101163.28;4995730;28;20038;-80
2022/06/04 04:56:53;;;;;;;8.30;4.60;;;;;;;26.13;49.35;101156.56;5022285;28;20033;-82
2022/06/04 04:59:19;;;;;;;5.97;4.28;;;;;;;26.28;49.22;101160.38;5001393;28;20075;-81
2022/06/04 05:01:44;;;;;;;10.23;4.90;;;;;;;26.42;48.88;101160.03;5037565;28;20133;-81
2022/06/04 05:04:10;;;;;;;7.50;4.70;;;;;;;26.64;48.43;101157.31;5020442;28;21210;-80
2022/06/04 05:06:36;;;;;;;9.15;4.60;;;;;;;26.79;47.95;101153.94;4993654;28;20100;-82
2022/06/04 05:09:02;;;;;;;7.03;3.97;;;;;;;26.97;47.81;101161.03;4996557;28;20541;-81
2022/06/04 05:11:28;;;;;;;8.32;4.22;;;;;;;27.19;46.98;101167.34;5010747;28;20453;-79
2022/06/04 05:13:55;;;;;;;5.93;4.00;;;;;;;27.08;47.40;101169.16;4980523;28;20468;-81
2022/06/04 05:16:22;;;;;;;8.57;4.30;;;;;;;27.25;47.21;101165.50;5008550;28;20350;-81
2022/06/04 05:18:48;;;;;;;10.55;4.70;;;;;;;27.47;46.67;101160.75;5014252;28;20048;-83
2022/06/04 05:21:27;;;;;;;7.68;4.70;;;;;;;27.72;45.86;101164.84;5014052;28;20034;-81
2022/06/04 05:23:56;;;;;;;8.88;4.70;;;;;;;27.84;45.43;101170.19;4994500;28;20044;-84
2022/06/04 05:26:23;;;;;;;5.63;4.20;;;;;;;28.05;45.18;101176.72;5016266;28;20174;-82
2022/06/04 05:28:49;;;;;;;7.57;4.13;;;;;;;28.26;44.63;101177.69;5016880;28;20494;-82
2022/06/04 05:31:15;;;;;;;10.05;4.30;;;;;;;28.51;44.20;101182.56;5029019;28;20025;-81
2022/06/04 05:33:44;;;;;;;8.15;4.30;;;;;;;28.35;43.78;101170.56;5031486;28;20057;-81
2022/06/04 05:36:10;;;;;;;5.63;4.00;;;;;;;28.50;43.71;101175.41;5020172;28;20068;-81
2022/06/04 05:38:36;;;;;;;10.82;4.70;;;;;;;28.72;43.47;101183.50;5003375;28;20034;-81
2022/06/04 05:41:05;;;;;;;8.85;4.43;;;;;;;28.95;42.56;101191.34;5007743;28;20490;-80
2022/06/04 05:43:30;;;;;;;6.75;4.20;;;;;;;28.87;42.54;101178.06;5014982;28;20021;-81
2022/06/04 05:46:07;;;;;;;7.35;4.03;;;;;;;29.00;42.18;101185.00;5005602;28;20056;-81
2022/06/04 05:48:35;;;;;;;5.03;3.90;;;;;;;28.98;42.80;101181.66;5031978;28;20463;-81
2022/06/04 05:51:01;;;;;;;8.65;4.28;;;;;;;29.19;42.38;101194.50;5023204;28;20451;-81
2022/06/04 05:53:27;;;;;;;11.10;4.60;;;;;;;29.33;42.29;101185.66;5011180;28;20040;-83
2022/06/04 05:55:53;;;;;;;6.50;4.30;;;;;;;29.50;42.20;101194.59;5012108;28;20050;-85
2022/06/04 05:58:19;;;;;;;9.43;4.13;;;;;;;29.39;42.07;101184.59;5023219;28;20044;-83
2022/06/04 06:00:45;;;;;;;5.97;4.10;;;;;;;29.49;42.35;101190.13;5012805;28;20385;-82
2022/06/04 06:03:11;;;;;;;7.85;4.32;;;;;;;29.64;41.89;101192.06;4998631;28;20022;-82
2022/06/04 06:05:44;;;;;;;9.85;4.10;;;;;;;29.92;41.45;101201.81;5017048;28;20045;-83
2022/06/04 06:08:10;;;;;;;7.85;4.15;;;;;;;30.17;41.12;101200.97;5016739;28;20033;-84
2022/06/04 06:10:42;;;;;;;8.45;4.43;;;;;;;30.43;40.26;101193.44;5018314;28;20045;-81
2022/06/04 06:13:08;;;;;;;10.77;4.68;;;;;;;30.79;39.61;101198.91;5000081;28;20536;-81
2022/06/04 06:15:34;;;;;;;7.35;4.10;;;;;;;30.93;39.14;101207.47;5014507;28;20033;-82
2022/06/04 06:18:00;;;;;;;7.20;4.32;;;;;;;31.02;38.75;101186.31;5033273;28;20037;-82
2022/06/04 06:20:26;;;;;;;9.93;4.25;;;;;;;31.06;38.11;101209.63;4999956;28;20033;-83
2022/06/04 06:22:53;;;;;;;11.63;4.13;;;;;;;30.65;38.99;101203.41;5013177;28;20094;-83
2022/06/04 06:25:19;;;;;;;8.75;4.60;;;;;;;30.81;39.13;101216.09;5033136;28;20033;-84
2022/06/04 06:27:45;;;;;;;6.30;4.68;;;;;;;30.65;38.99;101206.19;5046386;28;20060;-83
2022/06/04 06:30:11;;;;;;;7.05;4.10;;;;;;;30.77;38.75;101209.44;5012515;28;20034;-84
2022/06/04 06:32:37;;;;;;;13.63;10.63;;;;;;;31.11;38.32;101208.75;5015284;28;20041;-83
2022/06/04 06:35:03;;;;;;;7.97;4.80;;;;;;;30.98;38.91;101206.63;4976970;28;20123;-83
2022/06/04 06:37:29;;;;;;;7.25;4.60;;;;;;;30.86;39.30;101213.34;5042477;28;20036;-82
2022/06/04 06:39:55;;;;;;;5.93;4.45;;;;;;;31.16;39.27;101205.94;5015444;28;20045;-83
2022/06/04 06:42:23;;;;;;;6.03;4.30;;;;;;;31.53;38.69;101193.53;5031572;28;20505;-82
2022/06/04 06:44:48;;;;;;;9.70;4.35;;;;;;;31.78;37.70;101183.34;5012023;28;20045;-83
2022/06/04 06:47:14;;;;;;;5.55;4.03;;;;;;;32.10;37.04;101189.19;5013322;28;20037;-83
2022/06/04 06:49:39;;;;;;;7.68;4.30;;;;;;;32.44;36.64;101193.84;5014189;28;20493;-83
2022/06/04 06:52:06;;;;;;;10.73;4.50;;;;;;;32.48;36.06;101192.13;5029030;28;20041;-83
2022/06/04 06:54:34;;;;;;;7.00;4.10;;;;;;;32.57;35.53;101189.56;5014537;28;20413;-84
2022/06/04 06:57:00;;;;;;;6.03;3.70;;;;;;;32.69;35.26;101186.38;5015109;28;20429;-82
2022/06/04 06:59:26;;;;;;;7.80;3.97;;;;;;;32.79;35.38;101187.03;5001915;28;20033;-83
2022/06/04 07:01:51;;;;;;;9.90;4.13;;;;;;;32.79;35.55;101181.47;5023832;28;20405;-83
2022/06/04 07:04:18;;;;;;;8.43;4.15;;;;;;;32.94;35.46;101188.81;4997951;28;20537;-83
2022/06/04 07:06:45;;;;;;;8.50;4.40;;;;;;;33.25;34.76;101188.41;5008723;28;20147;-84
2022/06/04 07:09:19;;;;;;;5.85;3.92;;;;;;;33.32;33.95;101188.00;4989731;28;20029;-85
2022/06/04 07:11:45;;;;;;;5.32;3.92;;;;;;;33.22;34.22;101187.06;5017521;28;20532;-82
2022/06/04 07:14:10;;;;;;;10.73;3.97;;;;;;;32.98;34.07;101184.28;5014634;28;20018;-83
2022/06/04 07:16:36;;;;;;;4.95;3.90;;;;;;;32.78;34.54;101179.84;5011849;28;20065;-84
2022/06/04 07:19:02;;;;;;;6.25;4.10;;;;;;;32.50;35.56;101172.34;4981928;28;20037;-81
2022/06/04 07:21:28;;;;;;;7.72;4.28;;;;;;;32.55;35.13;101167.59;4998345;28;20041;-83
2022/06/04 07:23:54;;;;;;;7.00;4.40;;;;;;;32.72;35.31;101157.91;5014283;28;20083;-83
2022/06/04 07:26:20;;;;;;;5.30;4.13;;;;;;;32.80;34.90;101160.88;5027836;28;20045;-83
2022/06/04 07:28:46;;;;;;;5.35;3.90;;;;;;;32.84;34.96;101166.66;5032246;28;20121;-82
2022/06/04 07:31:12;;;;;;;5.47;4.03;;;;;;;32.82;34.47;101160.56;4993409;28;20055;-82
2022/06/04 07:33:38;;;;;;;12.13;4.03;;;;;;;32.83;34.37;101165.03;4998085;28;20026;-81
2022/06/04 07:36:04;;;;;;;5.63;4.00;;;;;;;32.41;34.71;101158.28;5013994;28;20437;-82
2022/06/04 07:38:30;;;;;;;6.97;3.83;;;;;;;32.53;34.10;101160.66;5020309;28;20013;-83
2022/06/04 07:40:55;;;;;;;6.05;4.40;;;;;;;32.56;34.17;101160.06;5031382;28;20084;-81
2022/06/04 07:43:22;;;;;;;7.85;4.03;;;;;;;32.83;33.71;101161.38;5014447;28;20061;-82
2022/06/04 07:45:49;;;;;;;7.32;4.00;;;;;;;32.93;33.71;101164.03;4998075;28;20037;-82
2022/06/04 07:48:14;;;;;;;14.88;4.32;;;;;;;32.68;33.35;101156.84;5025413;28;20034;-82
2022/06/04 07:50:40;;;;;;;4.60;3.90;;;;;;;32.53;33.38;101155.91;5013551;28;20517;-82
2022/06/04 07:53:06;;;;;;;7.45;3.80;;;;;;;32.42;33.61;101165.47;4997170;28;20021;-81
2022/06/04 07:55:33;;;;;;;11.25;4.05;;;;;;;32.21;33.76;101169.63;5026506;28;20041;-83
2022/06/04 07:57:59;;;;;;;9.18;4.10;;;;;;;32.15;33.65;101172.44;5013007;28;20037;-82
2022/06/04 08:00:24;;;;;;;6.53;3.90;;;;;;;32.02;34.11;101178.69;5029547;28;20170;-82
2022/06/04 08:03:13;;;;;;;7.50;4.35;;;;;;;31.46;35.61;101165.25;5031526;28;21008;-81
2022/06/04 08:05:39;;;;;;;7.88;4.43;;;;;;;31.85;38.26;101167.16;5031553;28;20382;-82
2022/06/04 08:08:04;;;;;;;9.48;5.20;;;;;;;32.06;39.13;101163.09;5012835;28;20036;-82
2022/06/04 08:10:31;;;;;;;10.18;5.32;;;;;;;32.36;39.39;101163.91;5013705;28;20026;-82
2022/06/04 08:13:00;;;;;;;16.90;5.00;;;;;;;32.51;39.05;101163.72;5014442;28;20068;-82
2022/06/04 08:15:26;;;;;;;6.10;5.05;;;;;;;32.25;39.44;101165.13;5032339;28;20072;-83
2022/06/04 08:17:52;;;;;;;10.07;5.30;;;;;;;31.88;40.12;101166.56;5013599;28;20033;-82
2022/06/04 08:20:18;;;;;;;9.45;5.18;;;;;;;32.06;40.25;101160.31;4996862;28;20060;-82
2022/06/04 08:22:44;;;;;;;6.85;5.10;;;;;;;31.65;41.01;101163.41;4997257;28;20486;-82
2022/06/04 08:25:10;;;;;;;7.40;4.60;;;;;;;31.66;41.05;101162.31;4997524;28;20029;-82
2022/06/04 08:27:36;;;;;;;9.02;5.00;;;;;;;32.24;39.84;101161.53;5027651;28;20490;-84
2022/06/04 08:30:03;;;;;;;9.73;4.95;;;;;;;32.32;39.99;101151.69;5029998;28;20133;-83
2022/06/04 08:32:32;;;;;;;18.08;12.63;;;;;;;32.79;39.16;101153.63;5022684;28;20064;-82
2022/06/04 08:34:57;;;;;;;8.57;5.00;;;;;;;32.50;38.94;101155.63;5030468;28;20029;-81
2022/06/04 08:37:23;;;;;;;8.10;5.45;;;;;;;32.75;39.05;101152.56;5013346;28;20132;-82
2022/06/04 08:39:49;;;;;;;7.63;5.30;;;;;;;33.51;37.01;101149.00;4997451;28;20037;-82
2022/06/04 08:42:40;;;;;;;8.82;5.00;;;;;;;33.53;36.87;101146.72;5006160;28;20120;-81
2022/06/04 08:45:06;;;;;;;8.57;5.13;;;;;;;33.41;36.87;101142.47;5014150;28;20033;-82
2022/06/04 08:47:36;;;;;;;8.05;4.90;;;;;;;33.90;35.42;101147.78;5005704;28;20528;-81
2022/06/04 08:50:08;;;;;;;10.38;5.15;;;;;;;34.41;34.97;101130.94;4986116;28;20532;-82
2022/06/04 08:52:52;;;;;;;9.82;4.88;;;;;;;34.76;34.35;101141.69;5031229;28;20025;-84
2022/06/04 08:58:46;;;;;;;6.07;4.95;;;;;;;35.65;32.88;101129.81;5025845;28;20429;-82
2022/06/04 09:01:29;;;;;;;15.98;5.38;;;;;;;35.71;33.09;101139.75;5027210;28;20100;-83
2022/06/04 09:04:21;;;;;;;11.75;5.65;;;;;;;35.13;34.20;101135.00;4996423;28;20411;-84
2022/06/04 09:07:05;;;;;;;11.30;5.88;;;;;;;35.41;34.20;101141.31;5007728;28;20132;-83
2022/06/04 09:09:42;;;;;;;8.63;6.35;;;;;;;35.69;33.98;101135.63;5013703;28;20115;-83
2022/06/04 09:12:18;;;;;;;10.98;5.90;;;;;;;36.16;33.33;101138.84;5014011;28;20091;-83
2022/06/04 09:14:51;;;;;;;9.57;6.40;;;;;;;35.88;34.09;101125.03;5010304;28;20033;-82
2022/06/04 09:17:39;;;;;;;11.80;6.95;;;;;;;35.48;34.60;101129.69;5012853;28;20042;-84
2022/06/04 09:20:18;;;;;;;8.10;5.75;;;;;;;34.57;35.66;101134.22;5024192;28;20037;-82
2022/06/04 09:22:47;;;;;;;7.40;6.07;;;;;;;34.84;35.49;101133.41;5030040;28;20025;-82
2022/06/04 09:25:14;;;;;;;11.10;6.50;;;;;;;35.13;35.40;101118.25;5012987;28;20140;-82
2022/06/04 09:27:39;;;;;;;8.52;6.45;;;;;;;35.39;34.77;101140.81;5030350;28;20033;-83
2022/06/04 09:30:09;;;;;;;7.53;5.60;;;;;;;35.24;34.24;101141.19;5023983;28;20116;-83
2022/06/04 09:33:07;;;;;;;8.48;5.80;;;;;;;35.26;35.03;101134.13;5040592;28;20040;-82
2022/06/04 09:35:37;;;;;;;9.23;5.82;;;;;;;34.40;35.53;101120.91;5032933;28;20053;-83
2022/06/04 09:38:04;;;;;;;12.45;5.47;;;;;;;36.00;32.81;101118.00;5032909;28;20048;-84
2022/06/04 09:40:34;;;;;;;7.93;4.88;;;;;;;37.16;30.68;101095.28;5004760;28;20111;-85
2022/06/04 09:43:05;;;;;;;16.20;10.98;;;;;;;38.91;28.45;101103.84;5043693;28;20051;-82
2022/06/04 09:45:31;;;;;;;12.40;5.40;;;;;;;40.11;26.73;101108.66;5026951;28;20517;-84
2022/06/04 09:47:57;;;;;;;9.30;5.22;;;;;;;40.64;26.18;101109.56;5015869;28;20560;-84
2022/06/04 09:50:35;;;;;;;7.53;5.60;;;;;;;41.02;25.68;101110.31;5025183;28;20041;-83
2022/06/04 09:53:22;;;;;;;6.10;4.68;;;;;;;40.67;26.39;101105.19;5014015;28;20030;-83
2022/06/04 09:55:58;;;;;;;9.23;4.88;;;;;;;39.59;27.46;101101.59;5029201;28;20065;-82
2022/06/04 09:58:29;;;;;;;11.18;4.88;;;;;;;39.18;28.38;101106.13;5014301;28;20030;-84
2022/06/04 10:00:59;;;;;;;9.82;5.40;;;;;;;39.32;28.15;101102.22;5007400;28;20065;-84
2022/06/04 10:03:26;;;;;;;8.77;5.13;;;;;;;38.21;29.32;101099.50;5032047;28;20116;-84
2022/06/04 10:06:09;;;;;;;9.80;5.30;;;;;;;37.16;30.82;101104.50;5024594;28;20056;-82
2022/06/04 10:11:21;;;;;;;10.98;5.70;;;;;;;36.17;33.23;101118.09;5010534;28;20148;-83
2022/06/04 10:13:48;;;;;;;10.93;5.80;;;;;;;35.85;33.51;101103.31;5012720;28;20045;-83
2022/06/04 10:16:23;;;;;;;9.65;5.10;;;;;;;37.21;31.67;101102.69;5012771;28;20120;-82
2022/06/04 10:18:55;;;;;;;8.10;5.50;;;;;;;36.58;33.06;101100.16;5018502;28;20029;-81
2022/06/04 10:21:31;;;;;;;9.40;5.60;;;;;;;36.65;33.59;101099.69;5026582;28;20486;-82
2022/06/04 10:23:58;;;;;;;9.82;6.10;;;;;;;37.29;32.95;101099.06;5010650;28;20069;-83
2022/06/04 10:26:27;;;;;;;9.23;6.45;;;;;;;36.41;33.71;101102.88;5011715;28;20025;-82
2022/06/04 10:29:13;;;;;;;11.85;6.95;;;;;;;35.35;34.78;101100.66;5026200;28;20068;-83
2022/06/04 10:32:16;;;;;;;10.20;6.50;;;;;;;34.48;37.34;101085.84;5007000;28;20017;-82
2022/06/04 10:34:53;;;;;;;11.80;6.88;;;;;;;33.81;38.00;101084.38;5037603;28;20068;-82
2022/06/04 10:37:44;;;;;;;13.90;7.25;;;;;;;33.70;39.30;101102.44;5016569;28;20018;-82
2022/06/04 10:40:39;;;;;;;10.18;7.10;;;;;;;32.77;40.87;101099.38;5014919;28;20117;-81
2022/06/04 10:43:41;;;;;;;11.85;7.00;;;;;;;33.48;38.95;101089.09;5014909;28;20108;-82
2022/06/04 10:46:25;;;;;;;12.98;6.53;;;;;;;33.94;38.34;101087.50;5027680;28;20033;-83
2022/06/04 10:49:16;;;;;;;11.80;6.70;;;;;;;33.11;39.86;101103.94;5016135;28;20033;-83
2022/06/04 10:51:53;;;;;;;13.02;6.60;;;;;;;31.65;42.61;101110.63;5030894;28;20149;-83
2022/06/04 10:54:28;;;;;;;10.10;6.93;;;;;;;31.79;43.00;101096.06;5009045;28;20426;-83
2022/06/04 10:57:13;;;;;;;13.63;7.13;;;;;;;31.13;44.74;101104.63;5030220;28;20017;-82
2022/06/04 10:59:55;;;;;;;11.20;6.75;;;;;;;31.63;43.60;101095.34;5024128;28;20038;-83
2022/06/04 11:02:47;;;;;;;10.65;6.53;;;;;;;31.62;43.14;101086.19;5014220;28;20034;-82
2022/06/04 11:05:28;;;;;;;9.85;6.40;;;;;;;31.90;41.74;101086.47;5013872;28;20055;-82
2022/06/04 11:08:01;;;;;;;12.30;7.10;;;;;;;31.41;43.86;101095.84;5031544;28;20569;-83
2022/06/04 11:10:34;;;;;;;10.95;6.57;;;;;;;30.37;46.15;101094.75;5030998;28;20564;-83
2022/06/04 11:13:12;;;;;;;10.15;6.15;;;;;;;29.99;47.04;101105.38;4996041;28;20041;-82
2022/06/04 11:15:49;;;;;;;10.00;6.28;;;;;;;29.44;47.86;101095.97;5028974;28;20025;-81
2022/06/04 11:18:17;;;;;;;17.17;6.57;;;;;;;29.55;48.08;101094.00;5029098;28;20017;-81
2022/06/04 11:20:50;;;;;;;12.02;6.60;;;;;;;29.53;48.47;101091.53;5011880;28;20068;-81
2022/06/04 11:23:39;;;;;;;11.90;6.45;;;;;;;29.88;47.50;101087.91;5013456;28;20111;-81
2022/06/04 11:26:14;;;;;;;9.13;6.00;;;;;;;30.32;44.88;101097.53;4998317;28;20413;-81
2022/06/04 11:28:39;;;;;;;9.23;5.93;;;;;;;30.21;45.99;101084.78;5012263;28;20465;-81
2022/06/04 11:31:14;;;;;;;16.77;6.45;;;;;;;29.98;46.86;101064.88;5024931;28;20060;-81
2022/06/04 11:34:12;;;;;;;10.10;6.35;;;;;;;29.40;48.87;101081.81;4996837;28;20068;-80
2022/06/04 11:37:05;;;;;;;12.82;6.93;;;;;;;29.05;49.93;101077.06;5040924;28;20025;-81
2022/06/04 11:39:52;;;;;;;11.18;6.53;;;;;;;29.18;48.75;101084.06;5014918;28;20103;-83
2022/06/04 11:42:33;;;;;;;10.68;5.90;;;;;;;29.35;48.21;101076.28;5032130;28;20453;-81
2022/06/04 11:45:17;;;;;;;9.35;5.95;;;;;;;29.12;49.15;101077.66;5020281;28;20470;-81
2022/06/04 11:47:48;;;;;;;11.57;6.22;;;;;;;28.88;49.13;101065.44;5038818;28;20029;-81
2022/06/04 11:50:32;;;;;;;8.88;6.22;;;;;;;29.29;48.12;101069.13;5025813;28;20037;-81